Time;durP1;ratioP1;P1;durP2;ratioP2;P2;SDS_P1;SDS_P2;PMS_P1;PMS_P2;Temp;Humidity;BMP_temperature;BMP_pressure;BME280_temperature;BME280_humidity;BME280_pressure;Samples;Min_cycle;Max_cycle;Signal;HPM_P1;HPM_P2
2023/04/09 00:00:24;;;;;;;0.30;0.30;;;5.10;99.90;;;;;;5028282;28;20585;-88
2023/04/09 00:02:50;;;;;;;0.30;0.30;;;4.80;99.90;;;;;;5046163;28;20745;-87
2023/04/09 00:05:15;;;;;;;0.30;0.30;;;4.80;99.90;;;;;;5048301;28;20199;-87
2023/04/09 00:07:41;;;;;;;0.30;0.30;;;4.70;99.90;;;;;;5052919;28;20214;-87
2023/04/09 00:10:07;;;;;;;0.27;0.27;;;4.80;99.90;;;;;;5026630;28;20189;-87
2023/04/09 00:12:32;;;;;;;0.30;0.30;;;4.80;99.90;;;;;;5028785;28;20197;-87
2023/04/09 00:14:58;;;;;;;0.37;0.37;;;4.80;99.90;;;;;;5026603;28;20464;-87
2023/04/09 00:17:23;;;;;;;0.40;0.40;;;4.70;99.90;;;;;;5030423;28;20544;-86
2023/04/09 00:19:49;;;;;;;0.40;0.40;;;4.80;99.90;;;;;;5041527;28;20210;-87
2023/04/09 00:22:15;;;;;;;0.30;0.30;;;4.70;99.90;;;;;;5026623;28;20568;-87
2023/04/09 00:24:40;;;;;;;0.30;0.30;;;4.70;99.90;;;;;;5022686;28;20197;-87
2023/04/09 00:27:06;;;;;;;0.30;0.30;;;4.70;99.90;;;;;;5047250;28;20319;-87
2023/04/09 00:29:31;;;;;;;0.30;0.30;;;4.80;99.90;;;;;;5049241;28;20213;-86
2023/04/09 00:31:57;;;;;;;0.40;0.40;;;4.80;99.90;;;;;;5058662;28;20198;-87
2023/04/09 00:34:22;;;;;;;0.40;0.40;;;4.70;99.90;;;;;;5045633;28;20217;-87
2023/04/09 00:36:48;;;;;;;0.40;0.40;;;4.70;99.90;;;;;;5049728;28;20214;-87
2023/04/09 00:39:13;;;;;;;0.40;0.40;;;4.70;99.90;;;;;;5040237;28;20200;-87
2023/04/09 00:41:39;;;;;;;0.40;0.40;;;4.60;99.90;;;;;;5040533;28;20194;-86
2023/04/09 00:44:04;;;;;;;0.30;0.30;;;4.60;99.90;;;;;;5048627;28;20210;-86
2023/04/09 00:46:31;;;;;;;0.40;0.40;;;4.50;99.90;;;;;;5027446;28;20276;-87
2023/04/09 00:48:56;;;;;;;0.40;0.40;;;4.60;99.90;;;;;;5040979;28;20186;-87
2023/04/09 00:51:22;;;;;;;0.30;0.30;;;4.70;99.90;;;;;;5048161;28;20436;-87
2023/04/09 00:53:48;;;;;;;0.37;0.37;;;4.60;99.90;;;;;;5043647;28;20189;-87
2023/04/09 00:56:14;;;;;;;0.50;0.50;;;4.70;99.90;;;;;;5058713;28;20569;-87
2023/04/09 00:58:40;;;;;;;0.40;0.40;;;4.70;99.90;;;;;;5028390;28;20255;-86
2023/04/09 01:01:06;;;;;;;0.40;0.40;;;4.70;99.90;;;;;;5027384;28;20993;-87
2023/04/09 01:03:31;;;;;;;0.40;0.40;;;4.80;99.90;;;;;;5040226;28;20182;-87
2023/04/09 01:06:16;;;;;;;0.30;0.30;;;4.90;99.90;;;;;;5046982;28;20293;-87
2023/04/09 01:08:50;;;;;;;0.40;0.40;;;4.90;99.90;;;;;;5040893;28;20190;-87
2023/04/09 01:11:41;;;;;;;0.30;0.30;;;4.90;99.90;;;;;;5047027;28;20448;-87
2023/04/09 01:14:22;;;;;;;0.40;0.40;;;4.80;99.90;;;;;;5043980;28;20528;-88
2023/04/09 01:16:53;;;;;;;0.40;0.40;;;4.80;99.90;;;;;;5045290;28;20997;-86
2023/04/09 01:19:37;;;;;;;0.40;0.40;;;4.90;99.90;;;;;;5044324;28;21492;-86
2023/04/09 01:22:08;;;;;;;0.30;0.30;;;5.00;99.90;;;;;;5027265;28;20434;-87
2023/04/09 01:24:45;;;;;;;0.30;0.30;;;5.10;99.90;;;;;;5049989;28;20445;-87
2023/04/09 01:27:12;;;;;;;0.40;0.40;;;5.00;99.90;;;;;;5045713;28;20456;-86
2023/04/09 01:29:47;;;;;;;0.40;0.40;;;5.00;99.90;;;;;;5045809;28;20441;-87
2023/04/09 01:32:16;;;;;;;0.40;0.40;;;5.10;99.90;;;;;;5036566;28;20536;-87
2023/04/09 01:34:43;;;;;;;0.40;0.40;;;5.10;99.90;;;;;;5047923;28;20442;-87
2023/04/09 01:37:10;;;;;;;0.40;0.40;;;5.10;99.90;;;;;;5028208;28;20520;-86
2023/04/09 01:39:37;;;;;;;0.30;0.30;;;5.00;99.90;;;;;;5039070;28;20468;-87
2023/04/09 01:42:04;;;;;;;0.40;0.40;;;5.10;99.90;;;;;;5047748;28;20458;-87
2023/04/09 01:44:31;;;;;;;0.40;0.40;;;5.10;99.90;;;;;;5046997;28;20464;-87
2023/04/09 01:46:57;;;;;;;0.30;0.30;;;5.10;99.90;;;;;;5025667;28;20452;-87
2023/04/09 01:49:23;;;;;;;0.30;0.30;;;5.10;99.90;;;;;;5030714;28;20457;-87
2023/04/09 01:51:49;;;;;;;0.40;0.40;;;5.20;99.90;;;;;;5026759;28;20449;-86
2023/04/09 01:54:15;;;;;;;0.40;0.40;;;5.20;99.90;;;;;;5020643;28;20196;-87
2023/04/09 01:56:46;;;;;;;0.40;0.40;;;5.20;99.90;;;;;;5014447;28;20453;-87
2023/04/09 01:59:12;;;;;;;0.40;0.40;;;5.10;99.90;;;;;;5037586;28;20476;-87
2023/04/09 02:02:10;;;;;;;0.40;0.40;;;5.20;99.90;;;;;;5036039;28;20451;-88
2023/04/09 02:04:42;;;;;;;0.37;0.37;;;5.20;99.90;;;;;;5008347;28;20457;-87
2023/04/09 02:07:24;;;;;;;0.40;0.40;;;5.20;99.90;;;;;;5026578;28;20951;-88
2023/04/09 02:09:53;;;;;;;0.33;0.33;;;5.20;99.90;;;;;;5028839;28;20452;-88
2023/04/09 02:12:20;;;;;;;0.33;0.33;;;5.20;99.90;;;;;;5028302;28;20475;-87
2023/04/09 02:14:49;;;;;;;0.30;0.30;;;5.10;99.90;;;;;;5030390;28;20442;-87
2023/04/09 02:17:14;;;;;;;0.40;0.40;;;5.20;99.90;;;;;;5028577;28;21295;-87
2023/04/09 02:19:42;;;;;;;0.40;0.40;;;5.20;99.90;;;;;;5029403;28;20474;-87
2023/04/09 02:22:09;;;;;;;0.40;0.40;;;5.20;99.90;;;;;;5039491;28;20259;-87
2023/04/09 02:24:35;;;;;;;0.30;0.30;;;5.20;99.90;;;;;;5013342;28;20441;-87
2023/04/09 02:27:01;;;;;;;0.30;0.30;;;5.20;99.90;;;;;;5027234;28;20453;-87
2023/04/09 02:29:27;;;;;;;0.40;0.40;;;5.20;99.90;;;;;;5029006;28;20540;-88
2023/04/09 02:31:52;;;;;;;0.37;0.37;;;5.20;99.90;;;;;;5013897;28;20628;-87
2023/04/09 02:34:19;;;;;;;0.40;0.40;;;5.20;99.90;;;;;;5027123;28;20199;-86
2023/04/09 02:36:44;;;;;;;0.30;0.30;;;5.20;99.90;;;;;;5010797;28;20279;-87
2023/04/09 02:39:10;;;;;;;0.33;0.33;;;5.20;99.90;;;;;;5013797;28;20948;-87
2023/04/09 02:41:35;;;;;;;0.40;0.40;;;5.20;99.90;;;;;;5029037;28;20187;-87
2023/04/09 02:44:01;;;;;;;0.30;0.30;;;5.20;99.90;;;;;;5029319;28;20209;-86
2023/04/09 02:46:26;;;;;;;0.30;0.30;;;5.30;99.90;;;;;;5011074;28;20682;-87
2023/04/09 02:48:53;;;;;;;0.40;0.40;;;5.30;99.90;;;;;;5011772;28;20206;-87
2023/04/09 02:51:19;;;;;;;0.40;0.40;;;5.30;99.90;;;;;;5013470;28;20202;-87
2023/04/09 02:53:45;;;;;;;0.30;0.30;;;5.30;99.90;;;;;;5029058;28;21010;-87
2023/04/09 02:56:10;;;;;;;0.40;0.40;;;5.30;99.90;;;;;;5026431;28;20495;-88
2023/04/09 02:58:36;;;;;;;0.30;0.30;;;5.30;99.90;;;;;;5013849;28;20175;-87
2023/04/09 03:01:01;;;;;;;0.33;0.33;;;5.30;99.90;;;;;;5021531;28;20212;-87
2023/04/09 03:03:27;;;;;;;0.37;0.37;;;5.30;99.90;;;;;;5034608;28;20187;-86
2023/04/09 03:05:53;;;;;;;0.40;0.40;;;5.40;99.90;;;;;;5012234;28;20188;-88
2023/04/09 03:08:18;;;;;;;0.30;0.30;;;5.40;99.90;;;;;;5016204;28;20860;-86
2023/04/09 03:10:44;;;;;;;0.30;0.30;;;5.20;99.90;;;;;;5033436;28;20214;-87
2023/04/09 03:13:10;;;;;;;0.30;0.30;;;5.30;99.90;;;;;;5017571;28;20667;-87
2023/04/09 03:15:35;;;;;;;0.30;0.30;;;5.30;99.90;;;;;;5017061;28;20266;-87
2023/04/09 03:18:00;;;;;;;0.40;0.40;;;5.30;99.90;;;;;;5006830;28;20188;-87
2023/04/09 03:20:26;;;;;;;0.40;0.40;;;5.20;99.90;;;;;;5022792;28;20215;-87
2023/04/09 03:22:51;;;;;;;0.40;0.40;;;5.30;99.90;;;;;;5015656;28;20245;-88
2023/04/09 03:25:19;;;;;;;0.30;0.30;;;5.30;99.90;;;;;;5041853;28;20202;-88
2023/04/09 03:27:45;;;;;;;0.40;0.40;;;5.30;99.90;;;;;;5027545;28;20194;-87
2023/04/09 03:30:11;;;;;;;0.30;0.30;;;5.20;99.90;;;;;;5010798;28;20458;-87
2023/04/09 03:32:36;;;;;;;0.30;0.30;;;5.20;99.90;;;;;;5034346;28;20195;-88
2023/04/09 03:35:02;;;;;;;0.30;0.30;;;5.10;99.90;;;;;;5031215;28;20533;-87
2023/04/09 03:37:27;;;;;;;0.30;0.30;;;5.00;99.90;;;;;;5029591;28;20198;-87
2023/04/09 03:39:53;;;;;;;0.33;0.33;;;5.00;99.90;;;;;;5031644;28;20223;-88
2023/04/09 03:42:18;;;;;;;0.30;0.30;;;5.10;99.90;;;;;;5026949;28;20210;-88
2023/04/09 03:44:44;;;;;;;0.40;0.40;;;5.20;99.90;;;;;;5038159;28;20238;-87
2023/04/09 03:47:09;;;;;;;0.30;0.30;;;5.20;99.90;;;;;;5051331;28;20182;-86
2023/04/09 03:49:35;;;;;;;0.30;0.30;;;5.20;99.90;;;;;;5026364;28;20655;-87
2023/04/09 03:52:01;;;;;;;0.30;0.30;;;5.20;99.90;;;;;;5038210;28;20179;-87
2023/04/09 03:54:30;;;;;;;0.30;0.30;;;5.20;99.90;;;;;;5030814;28;20488;-87
2023/04/09 03:56:56;;;;;;;0.30;0.30;;;5.20;99.90;;;;;;5049514;28;20183;-87
2023/04/09 03:59:22;;;;;;;0.30;0.30;;;5.30;99.90;;;;;;5039020;28;20454;-88
2023/04/09 04:01:48;;;;;;;0.40;0.40;;;5.30;99.90;;;;;;5048204;28;20484;-88
2023/04/09 04:04:13;;;;;;;0.40;0.40;;;5.30;99.90;;;;;;5060481;28;20475;-87
2023/04/09 04:06:39;;;;;;;0.30;0.30;;;5.30;99.90;;;;;;5041782;28;20198;-88
2023/04/09 04:09:04;;;;;;;0.30;0.30;;;5.40;99.90;;;;;;5045876;28;20186;-88
2023/04/09 04:11:30;;;;;;;0.30;0.30;;;5.40;99.90;;;;;;5053544;28;20186;-87
2023/04/09 04:13:56;;;;;;;0.40;0.40;;;5.40;99.90;;;;;;5031924;28;20647;-88
2023/04/09 04:16:22;;;;;;;0.37;0.37;;;5.30;99.90;;;;;;5026540;28;20597;-87
2023/04/09 04:18:48;;;;;;;0.40;0.40;;;5.40;99.90;;;;;;5059342;28;20178;-87
2023/04/09 04:21:14;;;;;;;0.40;0.40;;;5.40;99.90;;;;;;5047528;28;21269;-88
2023/04/09 04:23:40;;;;;;;0.40;0.40;;;5.30;99.90;;;;;;5031185;28;20182;-88
2023/04/09 04:26:10;;;;;;;0.30;0.30;;;5.30;99.90;;;;;;5055111;28;20440;-87
2023/04/09 04:28:39;;;;;;;0.33;0.33;;;5.30;99.90;;;;;;5030995;28;20235;-87
2023/04/09 04:31:09;;;;;;;0.30;0.30;;;5.40;99.90;;;;;;5030547;28;20492;-87
2023/04/09 04:33:36;;;;;;;0.40;0.40;;;5.40;99.90;;;;;;5052196;28;20503;-88
2023/04/09 04:36:09;;;;;;;0.30;0.30;;;5.40;99.90;;;;;;5026931;28;20476;-87
2023/04/09 04:38:35;;;;;;;0.40;0.40;;;5.40;99.90;;;;;;5017202;28;20928;-87
2023/04/09 04:41:01;;;;;;;0.30;0.30;;;5.40;99.90;;;;;;5038570;28;20479;-87
2023/04/09 04:43:27;;;;;;;0.30;0.30;;;5.40;99.90;;;;;;5052628;28;20481;-87
2023/04/09 04:45:52;;;;;;;0.30;0.30;;;5.50;99.90;;;;;;5047922;28;20473;-88
2023/04/09 04:48:18;;;;;;;0.30;0.30;;;5.50;99.90;;;;;;5030368;28;20542;-88
2023/04/09 04:50:44;;;;;;;0.30;0.30;;;5.50;99.90;;;;;;5046173;28;20214;-87
2023/04/09 04:53:10;;;;;;;0.40;0.40;;;5.50;99.90;;;;;;5046213;28;20183;-88
2023/04/09 04:55:35;;;;;;;0.30;0.30;;;5.50;99.90;;;;;;5029758;28;20552;-88
2023/04/09 04:58:01;;;;;;;0.30;0.30;;;5.40;99.90;;;;;;5019397;28;20767;-87
2023/04/09 05:00:26;;;;;;;0.40;0.40;;;5.40;99.90;;;;;;5055619;28;20275;-87
2023/04/09 05:02:52;;;;;;;0.33;0.33;;;5.50;99.90;;;;;;5041447;28;20205;-88
2023/04/09 05:05:17;;;;;;;0.30;0.30;;;5.60;99.90;;;;;;5044375;28;20183;-88
2023/04/09 05:07:43;;;;;;;0.30;0.30;;;5.60;99.90;;;;;;5022517;28;20191;-87
2023/04/09 05:10:08;;;;;;;0.40;0.40;;;5.60;99.90;;;;;;5040759;28;20198;-88
2023/04/09 05:12:34;;;;;;;0.40;0.40;;;5.70;99.90;;;;;;5048566;28;20928;-87
2023/04/09 05:14:59;;;;;;;0.40;0.40;;;5.60;99.90;;;;;;5039250;28;20228;-89
2023/04/09 05:17:25;;;;;;;0.37;0.37;;;5.70;99.90;;;;;;5027688;28;20183;-87
2023/04/09 05:19:54;;;;;;;0.30;0.30;;;5.70;99.90;;;;;;5028076;28;20662;-89
2023/04/09 05:22:19;;;;;;;0.30;0.30;;;5.70;99.90;;;;;;5028491;28;20218;-87
2023/04/09 05:24:45;;;;;;;0.40;0.40;;;5.70;99.90;;;;;;5029324;28;20480;-88
2023/04/09 05:27:10;;;;;;;0.20;0.20;;;5.60;99.90;;;;;;5040008;28;20286;-87
2023/04/09 05:29:36;;;;;;;0.20;0.20;;;5.70;99.90;;;;;;5030414;28;20222;-87
2023/04/09 05:32:02;;;;;;;0.20;0.20;;;5.70;99.90;;;;;;5023502;28;20198;-87
2023/04/09 05:34:28;;;;;;;0.20;0.20;;;5.70;99.90;;;;;;5018968;28;20197;-87
2023/04/09 05:36:54;;;;;;;0.27;0.27;;;5.80;99.90;;;;;;5038902;28;20445;-86
2023/04/09 05:39:20;;;;;;;0.20;0.20;;;5.80;99.90;;;;;;5025885;28;20226;-85
2023/04/09 05:41:45;;;;;;;0.30;0.30;;;5.90;99.90;;;;;;5045217;28;20522;-88
2023/04/09 05:44:11;;;;;;;0.20;0.20;;;5.90;99.90;;;;;;5043602;28;20189;-88
2023/04/09 05:46:37;;;;;;;0.20;0.20;;;6.00;99.90;;;;;;5032285;28;20199;-88
2023/04/09 05:49:02;;;;;;;0.30;0.30;;;6.00;99.90;;;;;;5020408;28;21134;-88
2023/04/09 05:51:28;;;;;;;0.27;0.27;;;6.10;99.90;;;;;;5026505;28;20438;-86
2023/04/09 05:53:53;;;;;;;0.30;0.30;;;6.10;99.90;;;;;;5024182;28;20183;-86
2023/04/09 05:56:21;;;;;;;0.20;0.20;;;6.10;99.90;;;;;;5041311;28;20198;-85
2023/04/09 05:58:47;;;;;;;0.30;0.30;;;6.20;99.90;;;;;;5039825;28;20224;-86
2023/04/09 06:01:13;;;;;;;0.30;0.30;;;6.20;99.90;;;;;;5032597;28;20488;-85
2023/04/09 06:03:38;;;;;;;0.33;0.33;;;6.30;99.90;;;;;;5025948;28;20261;-84
2023/04/09 06:06:04;;;;;;;0.30;0.30;;;6.30;99.90;;;;;;5042154;28;20183;-85
2023/04/09 06:08:30;;;;;;;0.30;0.30;;;6.30;99.90;;;;;;5029506;28;20232;-86
2023/04/09 06:10:57;;;;;;;0.30;0.30;;;6.30;99.90;;;;;;5027799;28;20179;-85
2023/04/09 06:13:23;;;;;;;0.30;0.30;;;6.40;99.90;;;;;;5025332;28;20185;-85
2023/04/09 06:15:48;;;;;;;0.30;0.30;;;6.40;99.90;;;;;;5041687;28;20441;-85
2023/04/09 06:18:14;;;;;;;0.30;0.30;;;6.50;99.90;;;;;;5044124;28;20187;-86
2023/04/09 06:20:40;;;;;;;0.30;0.30;;;6.50;99.90;;;;;;5039687;28;20790;-86
2023/04/09 06:23:06;;;;;;;0.30;0.30;;;6.50;99.90;;;;;;5042085;28;22047;-82
2023/04/09 06:25:31;;;;;;;0.30;0.30;;;6.60;99.90;;;;;;5039411;28;20449;-84
2023/04/09 06:27:57;;;;;;;0.30;0.30;;;6.70;99.90;;;;;;5041761;28;20655;-84
2023/04/09 06:30:22;;;;;;;0.30;0.30;;;6.70;99.90;;;;;;5027082;28;20209;-85
2023/04/09 06:32:48;;;;;;;0.30;0.30;;;6.80;99.90;;;;;;5032093;28;20555;-85
2023/04/09 06:35:16;;;;;;;0.30;0.30;;;6.70;99.90;;;;;;5050506;28;20194;-86
2023/04/09 06:37:42;;;;;;;0.30;0.30;;;6.80;99.90;;;;;;5048479;28;20241;-86
2023/04/09 06:40:08;;;;;;;0.30;0.30;;;6.80;99.90;;;;;;5032305;28;20476;-84
2023/04/09 06:42:33;;;;;;;0.30;0.30;;;6.80;99.90;;;;;;5034685;28;20212;-82
2023/04/09 06:44:59;;;;;;;0.30;0.30;;;6.80;99.90;;;;;;5049404;28;20597;-82
2023/04/09 06:47:25;;;;;;;0.30;0.30;;;6.80;99.90;;;;;;5049774;28;20678;-84
2023/04/09 06:49:50;;;;;;;0.30;0.30;;;6.90;99.90;;;;;;5028320;28;20506;-83
2023/04/09 06:52:16;;;;;;;0.30;0.30;;;6.90;99.90;;;;;;5050930;28;20195;-83
2023/04/09 06:54:41;;;;;;;0.30;0.30;;;6.90;99.90;;;;;;5027484;28;20195;-86
2023/04/09 06:57:07;;;;;;;0.30;0.30;;;7.00;99.90;;;;;;5031408;28;20183;-85
2023/04/09 06:59:33;;;;;;;0.30;0.30;;;7.10;99.90;;;;;;5038949;28;20269;-84
2023/04/09 07:01:59;;;;;;;0.30;0.30;;;7.10;99.90;;;;;;5047692;28;20457;-85
2023/04/09 07:04:25;;;;;;;0.30;0.30;;;7.10;99.90;;;;;;5025247;28;20270;-84
2023/04/09 07:06:53;;;;;;;0.30;0.30;;;7.20;99.90;;;;;;5026291;28;20481;-84
2023/04/09 07:09:19;;;;;;;0.30;0.30;;;7.20;99.90;;;;;;5031735;28;20442;-85
2023/04/09 07:11:45;;;;;;;0.30;0.30;;;7.20;99.90;;;;;;5031125;28;20447;-83
2023/04/09 07:14:10;;;;;;;0.20;0.20;;;7.30;99.90;;;;;;5048818;28;20553;-84
2023/04/09 07:16:36;;;;;;;0.30;0.30;;;7.20;99.90;;;;;;5041080;28;20448;-84
2023/04/09 07:19:02;;;;;;;0.30;0.30;;;7.30;99.90;;;;;;5030970;28;20647;-85
2023/04/09 07:21:27;;;;;;;0.30;0.30;;;7.50;99.90;;;;;;5029585;28;20222;-84
2023/04/09 07:23:53;;;;;;;0.30;0.30;;;7.50;99.90;;;;;;5043215;28;20261;-83
2023/04/09 07:26:18;;;;;;;0.30;0.30;;;7.60;99.90;;;;;;5047555;28;20282;-83
2023/04/09 07:28:44;;;;;;;0.30;0.30;;;7.60;99.90;;;;;;5026522;28;20186;-84
2023/04/09 07:31:10;;;;;;;0.30;0.30;;;7.80;99.90;;;;;;5042290;28;20265;-85
2023/04/09 07:33:36;;;;;;;0.30;0.30;;;7.80;99.90;;;;;;5040419;28;20195;-85
2023/04/09 07:36:01;;;;;;;0.30;0.30;;;7.80;99.90;;;;;;5049157;28;20214;-86
2023/04/09 07:38:29;;;;;;;0.20;0.20;;;7.90;99.90;;;;;;5029603;28;20237;-83
2023/04/09 07:40:54;;;;;;;0.30;0.30;;;8.10;99.90;;;;;;5049727;28;20304;-84
2023/04/09 07:43:20;;;;;;;0.20;0.20;;;8.10;99.90;;;;;;5049035;28;20544;-83
2023/04/09 07:45:48;;;;;;;0.23;0.23;;;8.30;99.90;;;;;;5039883;28;20223;-84
2023/04/09 07:48:13;;;;;;;0.30;0.30;;;8.30;99.90;;;;;;5031930;28;20286;-84
2023/04/09 07:50:39;;;;;;;0.30;0.30;;;8.10;99.90;;;;;;5026184;28;20474;-84
2023/04/09 07:53:04;;;;;;;0.30;0.30;;;8.00;99.90;;;;;;5042425;28;20246;-84
2023/04/09 07:55:30;;;;;;;0.30;0.30;;;8.30;99.90;;;;;;5020391;28;20197;-83
2023/04/09 07:57:55;;;;;;;0.20;0.20;;;8.40;99.90;;;;;;5031485;28;20625;-83
2023/04/09 08:00:21;;;;;;;0.30;0.30;;;8.50;99.90;;;;;;5012592;28;20223;-83
2023/04/09 08:02:46;;;;;;;0.20;0.20;;;8.60;99.90;;;;;;5013409;28;20250;-83
2023/04/09 08:05:12;;;;;;;0.20;0.20;;;8.50;99.90;;;;;;5034766;28;20282;-83
2023/04/09 08:07:37;;;;;;;0.20;0.20;;;8.60;99.90;;;;;;5013670;28;20187;-84
2023/04/09 08:10:04;;;;;;;0.20;0.20;;;8.70;99.90;;;;;;5032590;28;20184;-83
2023/04/09 08:12:30;;;;;;;0.20;0.20;;;8.70;99.90;;;;;;5009602;28;20194;-83
2023/04/09 08:14:55;;;;;;;0.20;0.20;;;8.60;99.90;;;;;;5029603;28;20517;-83
2023/04/09 08:17:21;;;;;;;0.30;0.30;;;8.80;99.90;;;;;;5034974;28;20271;-83
2023/04/09 08:19:48;;;;;;;0.20;0.20;;;8.80;99.90;;;;;;5032991;28;20302;-84
2023/04/09 08:22:14;;;;;;;0.20;0.20;;;8.90;99.90;;;;;;5029807;28;20203;-83
2023/04/09 08:24:42;;;;;;;0.30;0.30;;;9.00;99.90;;;;;;5026634;28;20450;-84
2023/04/09 08:27:07;;;;;;;0.30;0.30;;;9.00;99.90;;;;;;5022390;28;20958;-84
2023/04/09 08:29:33;;;;;;;0.20;0.20;;;9.20;99.90;;;;;;5011872;28;20509;-84
2023/04/09 08:31:59;;;;;;;0.30;0.30;;;9.10;99.90;;;;;;5024870;28;20187;-84
2023/04/09 08:34:24;;;;;;;0.20;0.20;;;9.30;99.90;;;;;;5031533;28;20469;-84
2023/04/09 08:36:50;;;;;;;0.27;0.27;;;9.50;99.90;;;;;;5033385;28;20233;-85
2023/04/09 08:39:18;;;;;;;0.20;0.20;;;9.80;99.90;;;;;;5028039;28;20263;-84
2023/04/09 08:41:47;;;;;;;0.20;0.20;;;9.80;99.90;;;;;;5033514;28;20211;-84
2023/04/09 08:44:12;;;;;;;0.20;0.20;;;9.80;99.90;;;;;;5027662;28;20934;-83
2023/04/09 08:46:38;;;;;;;0.20;0.20;;;9.80;99.90;;;;;;5026115;28;20461;-84
2023/04/09 08:49:04;;;;;;;0.20;0.20;;;9.90;99.90;;;;;;5015919;28;20183;-83
2023/04/09 08:51:30;;;;;;;0.20;0.20;;;10.00;99.90;;;;;;5031947;28;20213;-84
2023/04/09 08:54:00;;;;;;;0.20;0.20;;;9.70;99.90;;;;;;5056629;28;20446;-85
2023/04/09 08:56:26;;;;;;;0.20;0.20;;;10.00;99.90;;;;;;5054936;28;20448;-88
2023/04/09 08:58:52;;;;;;;0.20;0.20;;;10.20;99.90;;;;;;5028264;28;21036;-87
2023/04/09 09:01:23;;;;;;;0.20;0.20;;;10.40;99.90;;;;;;5045253;28;20218;-87
2023/04/09 09:04:03;;;;;;;0.20;0.20;;;10.60;99.90;;;;;;5045786;28;20430;-88
2023/04/09 09:06:34;;;;;;;0.20;0.20;;;10.80;99.90;;;;;;5046573;28;20440;-88
2023/04/09 09:09:11;;;;;;;0.20;0.20;;;10.80;99.90;;;;;;5032181;28;20483;-88
2023/04/09 09:11:42;;;;;;;0.20;0.20;;;10.90;99.90;;;;;;5042592;28;20538;-89
2023/04/09 09:14:09;;;;;;;0.20;0.20;;;11.40;99.90;;;;;;5035795;28;20833;-89
2023/04/09 09:16:43;;;;;;;0.20;0.20;;;11.70;99.90;;;;;;5026557;28;20445;-90
2023/04/09 09:19:24;;;;;;;0.20;0.20;;;11.60;99.90;;;;;;5048353;28;20453;-90
2023/04/09 09:21:57;;;;;;;0.20;0.20;;;11.70;99.90;;;;;;5046096;28;20546;-89
2023/04/09 09:24:22;;;;;;;0.20;0.20;;;11.80;99.90;;;;;;5047679;28;20797;-90
2023/04/09 09:26:48;;;;;;;0.10;0.10;;;12.60;99.90;;;;;;5033279;28;20448;-91
2023/04/09 09:29:13;;;;;;;0.10;0.10;;;13.00;99.90;;;;;;5032782;28;20236;-91
2023/04/09 09:31:50;;;;;;;0.10;0.10;;;13.10;99.90;;;;;;5050726;28;20199;-92
2023/04/09 09:34:17;;;;;;;0.10;0.10;;;;;;;;;;5024888;28;20193;-95
2023/04/09 09:36:43;;;;;;;0.10;0.10;;;14.10;99.90;;;;;;5030262;28;20452;-94
2023/04/09 09:39:11;;;;;;;0.10;0.10;;;13.70;99.90;;;;;;5032457;28;20449;-94
2023/04/09 09:41:38;;;;;;;0.10;0.10;;;13.00;99.90;;;;;;5052825;28;20449;-90
2023/04/09 09:44:06;;;;;;;0.10;0.10;;;12.50;99.90;;;;;;5032474;28;20463;-88
2023/04/09 09:46:41;;;;;;;0.10;0.10;;;12.40;99.90;;;;;;5046677;28;20457;-90
2023/04/09 09:49:08;;;;;;;0.20;0.20;;;12.70;99.90;;;;;;5031043;28;20460;-88
2023/04/09 09:51:36;;;;;;;0.10;0.10;;;12.70;99.90;;;;;;5033219;28;20520;-90
2023/04/09 09:54:02;;;;;;;0.10;0.10;;;13.10;99.90;;;;;;5031570;28;20475;-92
2023/04/09 09:56:31;;;;;;;0.10;0.10;;;13.10;99.90;;;;;;5030155;28;20438;-94
2023/04/09 09:59:14;;;;;;;0.10;0.10;;;13.40;99.90;;;;;;5034167;28;20456;-92
2023/04/09 10:01:41;;;;;;;0.10;0.10;;;;;;;;;;5031781;28;20456;-91
2023/04/09 10:04:12;;;;;;;0.10;0.10;;;14.50;99.90;;;;;;5033065;28;20437;-90
2023/04/09 10:06:41;;;;;;;0.10;0.10;;;13.70;99.90;;;;;;5032910;28;20449;-93
2023/04/09 10:09:07;;;;;;;0.10;0.10;;;14.80;99.90;;;;;;5036910;28;20443;-91
2023/04/09 10:11:35;;;;;;;0.10;0.10;;;;;;;;;;5053433;28;20804;-93
2023/04/09 10:14:02;;;;;;;0.10;0.10;;;14.80;99.90;;;;;;5032776;28;20437;-89
2023/04/09 10:16:28;;;;;;;0.10;0.10;;;14.20;99.90;;;;;;5032586;28;20440;-89
2023/04/09 10:18:58;;;;;;;0.10;0.10;;;14.40;99.90;;;;;;5028219;28;20737;-88
2023/04/09 10:21:46;;;;;;;0.10;0.10;;;14.60;99.90;;;;;;5023877;28;20572;-89
2023/04/09 10:24:12;;;;;;;0.10;0.10;;;14.60;99.90;;;;;;5031373;28;20433;-88
2023/04/09 10:26:43;;;;;;;0.10;0.10;;;14.20;99.90;;;;;;5027910;28;20528;-87
2023/04/09 10:29:16;;;;;;;0.10;0.10;;;13.90;99.90;;;;;;5037640;28;20460;-89
2023/04/09 10:32:03;;;;;;;0.10;0.10;;;14.20;99.90;;;;;;5024921;28;20436;-88
2023/04/09 10:34:34;;;;;;;0.10;0.10;;;15.20;99.90;;;;;;5032145;28;20505;-88
2023/04/09 10:36:59;;;;;;;0.10;0.10;;;15.20;99.90;;;;;;5034431;28;20477;-90
2023/04/09 10:39:27;;;;;;;0.10;0.10;;;15.80;99.90;;;;;;5033214;28;20479;-87
2023/04/09 10:41:53;;;;;;;0.10;0.10;;;15.10;99.90;;;;;;5033152;28;20191;-89
2023/04/09 10:44:25;;;;;;;0.10;0.10;;;14.90;99.90;;;;;;5033975;28;20571;-88
2023/04/09 10:46:53;;;;;;;0.10;0.10;;;15.30;99.90;;;;;;5031717;28;20441;-88
2023/04/09 10:49:21;;;;;;;0.10;0.10;;;14.80;99.90;;;;;;5037406;28;20524;-91
2023/04/09 10:52:00;;;;;;;0.10;0.10;;;15.60;99.90;;;;;;5054205;28;20528;-93
2023/04/09 10:54:36;;;;;;;0.10;0.10;;;15.40;99.90;;;;;;5022339;28;20433;-88
2023/04/09 10:57:07;;;;;;;0.10;0.10;;;15.30;99.90;;;;;;5047023;28;20452;-87
2023/04/09 10:59:41;;;;;;;0.10;0.10;;;15.80;99.90;;;;;;5033143;28;20504;-89
2023/04/09 11:02:12;;;;;;;0.10;0.10;;;16.30;99.90;;;;;;5027202;28;20476;-87
2023/04/09 11:05:10;;;;;;;0.10;0.10;;;16.50;99.90;;;;;;5027040;28;20442;-89
2023/04/09 11:07:42;;;;;;;0.10;0.10;;;17.20;99.90;;;;;;5029548;28;20499;-87
2023/04/09 11:10:08;;;;;;;0.10;0.00;;;17.80;99.90;;;;;;5018170;28;20461;-90
2023/04/09 11:12:33;;;;;;;0.10;0.00;;;18.70;99.90;;;;;;5042796;28;20889;-89
2023/04/09 11:14:59;;;;;;;0.10;0.00;;;18.30;99.90;;;;;;5023788;28;20258;-91
2023/04/09 11:17:24;;;;;;;0.10;0.00;;;18.70;99.90;;;;;;5024472;28;20207;-91
2023/04/09 11:19:50;;;;;;;0.10;0.10;;;18.00;99.90;;;;;;5031432;28;20214;-91
2023/04/09 11:22:16;;;;;;;0.10;0.00;;;18.30;99.90;;;;;;5045258;28;20233;-90
2023/04/09 11:24:42;;;;;;;0.10;0.00;;;18.50;99.90;;;;;;5049278;28;20228;-91
2023/04/09 11:27:09;;;;;;;0.10;0.00;;;;;;;;;;5044198;28;20655;-89
2023/04/09 11:29:35;;;;;;;0.00;0.00;;;19.60;99.90;;;;;;5029770;28;20437;-89
2023/04/09 11:32:01;;;;;;;0.00;0.00;;;19.40;99.90;;;;;;5029913;28;20562;-90
2023/04/09 11:34:27;;;;;;;0.10;0.00;;;19.20;99.50;;;;;;5047014;28;20437;-89
2023/04/09 11:36:53;;;;;;;0.10;0.00;;;19.40;99.90;;;;;;5044942;28;20429;-89
2023/04/09 11:39:19;;;;;;;0.10;0.00;;;19.30;99.90;;;;;;5038720;28;20450;-90
2023/04/09 11:41:46;;;;;;;0.10;0.00;;;19.60;99.90;;;;;;5037749;28;20261;-88
2023/04/09 11:44:13;;;;;;;0.10;0.00;;;19.80;99.90;;;;;;5042938;28;20838;-88
2023/04/09 11:46:39;;;;;;;0.10;0.00;;;;;;;;;;5039688;28;20468;-88
2023/04/09 11:49:05;;;;;;;0.03;0.00;;;20.10;99.90;;;;;;5031813;28;20752;-88
2023/04/09 11:51:31;;;;;;;0.10;0.00;;;19.70;99.90;;;;;;5029566;28;20453;-89
2023/04/09 11:54:02;;;;;;;0.10;0.00;;;20.00;99.80;;;;;;5029355;28;20448;-84
2023/04/09 11:56:31;;;;;;;0.00;0.00;;;20.10;97.30;;;;;;5026871;28;20245;-86
2023/04/09 11:58:59;;;;;;;0.10;0.00;;;20.10;99.90;;;;;;5031035;28;21003;-84
2023/04/09 12:01:33;;;;;;;0.10;0.00;;;20.80;97.00;;;;;;5026523;28;20583;-86
2023/04/09 12:04:00;;;;;;;0.10;0.00;;;20.90;97.30;;;;;;5041473;28;20445;-87
2023/04/09 12:06:27;;;;;;;0.10;0.00;;;;;;;;;;5020787;28;20517;-84
2023/04/09 12:08:57;;;;;;;0.10;0.00;;;22.40;99.90;;;;;;5041271;28;20431;-88
2023/04/09 12:11:32;;;;;;;0.10;0.00;;;22.50;96.90;;;;;;5029344;28;20481;-85
2023/04/09 12:14:03;;;;;;;0.10;0.00;;;22.60;95.10;;;;;;5046106;28;20448;-84
2023/04/09 12:16:34;;;;;;;0.10;0.00;;;22.10;95.40;;;;;;5046012;28;21216;-87
2023/04/09 12:19:07;;;;;;;0.10;0.00;;;22.10;96.40;;;;;;5018566;28;20468;-86
2023/04/09 12:21:53;;;;;;;0.10;0.00;;;21.10;95.50;;;;;;5047287;28;20448;-88
2023/04/09 12:24:20;;;;;;;0.10;0.00;;;21.70;95.40;;;;;;5042193;28;20551;-91
2023/04/09 12:26:48;;;;;;;0.10;0.00;;;22.00;95.00;;;;;;5042195;28;20438;-88
2023/04/09 12:29:15;;;;;;;0.10;0.00;;;21.40;95.20;;;;;;5040768;28;20909;-88
2023/04/09 12:31:44;;;;;;;0.10;0.00;;;21.40;97.00;;;;;;5043718;28;20814;-87
2023/04/09 12:34:12;;;;;;;0.03;0.00;;;21.10;95.40;;;;;;5039788;28;20551;-94
2023/04/09 12:36:38;;;;;;;0.10;0.00;;;22.00;96.80;;;;;;5027348;28;20487;-93
2023/04/09 12:39:04;;;;;;;0.10;0.00;;;21.20;95.10;;;;;;5042198;28;20441;-87
2023/04/09 12:41:30;;;;;;;0.10;0.00;;;21.00;97.40;;;;;;5042135;28;20430;-89
2023/04/09 12:43:56;;;;;;;0.10;0.00;;;21.00;95.00;;;;;;5044341;28;20963;-90
2023/04/09 12:46:22;;;;;;;0.10;0.00;;;;;;;;;;5036949;28;20561;-88
2023/04/09 12:48:48;;;;;;;0.10;0.00;;;21.30;94.40;;;;;;5023527;28;20444;-88
2023/04/09 12:51:14;;;;;;;0.10;0.00;;;21.20;94.90;;;;;;5038764;28;21036;-86
2023/04/09 12:53:42;;;;;;;0.10;0.10;;;;;;;;;;5021214;28;20195;-87
2023/04/09 12:56:08;;;;;;;0.03;0.00;;;21.40;99.90;;;;;;5021679;28;20457;-87